Time;durP1;ratioP1;P1;durP2;ratioP2;P2;SDS_P1;SDS_P2;PMS_P1;PMS_P2;Temp;Humidity;BMP_temperature;BMP_pressure;BME280_temperature;BME280_humidity;BME280_pressure;Samples;Min_cycle;Max_cycle;Signal;HPM_P1;HPM_P2
2021/07/25 00:00:07;;;;;;;;;;;22.40;96.20;22.40;99004.00;;;;344641;28;83307;-91
2021/07/25 00:00:19;;;;;;;;;;;22.40;96.20;22.30;98998.00;;;;345398;28;91138;-91
2021/07/25 00:00:31;;;;;;;;;;;22.40;96.20;22.30;98990.00;;;;347466;28;83334;-91
2021/07/25 00:00:44;;;;;;;;;;;22.40;96.20;22.30;98993.00;;;;343558;28;91388;-91
2021/07/25 00:00:56;;;;;;;;;;;22.40;96.20;22.40;98994.00;;;;345040;28;83508;-91
2021/07/25 00:01:08;;;;;;;;;;;22.40;96.20;22.40;98997.00;;;;344169;28;91325;-91
2021/07/25 00:01:20;;;;;;;;;;;22.40;96.20;22.40;98988.00;;;;345912;28;83472;-91
2021/07/25 00:01:32;;;;;;;;;;;22.40;96.20;22.40;98995.00;;;;346736;28;92702;-90
2021/07/25 00:01:44;;;;;;;;;;;22.40;96.30;22.30;98990.00;;;;344788;28;83487;-91
2021/07/25 00:01:56;;;;;;;;;;;22.40;96.30;22.30;99002.00;;;;344155;28;91619;-91
2021/07/25 00:02:08;;;;;;;;;;;22.40;96.20;22.30;99001.00;;;;347337;28;83425;-91
2021/07/25 00:02:20;;;;;;;;;;;22.40;96.20;22.40;98990.00;;;;344094;28;91404;-91
2021/07/25 00:02:33;;;;;;;;;;;22.40;96.20;22.40;98991.00;;;;346061;28;83324;-91
2021/07/25 00:02:46;;;;;;;;;;;22.40;96.10;22.30;98989.00;;;;344145;28;92035;-91
2021/07/25 00:02:58;;;;;;;;;;;22.40;96.10;22.30;98999.00;;;;344541;28;83650;-91
2021/07/25 00:03:10;;;;;;;;;;;22.40;96.00;22.20;98996.00;;;;341080;28;90647;-91
2021/07/25 00:03:22;;;;;;;;;;;22.40;96.00;22.20;98999.00;;;;344681;28;82479;-90
2021/07/25 00:03:34;;;;;;;;;;;22.30;96.00;22.20;98996.00;;;;341466;28;92342;-91
2021/07/25 00:03:46;;;;;;;;;;;22.30;95.90;22.10;98993.00;;;;340698;28;83627;-91
2021/07/25 00:04:15;;;;;;;;;;;22.30;95.90;22.20;98991.00;;;;344873;28;90543;-90
2021/07/25 00:04:27;;;;;;;;;;;22.30;96.00;22.30;98994.00;;;;346051;28;83446;-91
2021/07/25 00:04:38;;;;;;;;;;;22.20;95.90;22.40;98989.00;;;;342704;28;89650;-91
2021/07/25 00:04:50;;;;;;;;;;;22.30;96.00;22.50;98988.00;;;;344549;28;83485;-91
2021/07/25 00:05:03;;;;;;;;;;;22.30;96.00;22.50;98990.00;;;;345425;28;91407;-90
2021/07/25 00:05:15;;;;;;;;;;;22.30;95.90;22.40;98991.00;;;;336410;28;83523;-90
2021/07/25 00:05:27;;;;;;;;;;;22.30;95.80;22.40;98985.00;;;;344206;28;90647;-91
2021/07/25 00:05:40;;;;;;;;;;;22.30;95.80;22.50;98986.00;;;;345963;28;83455;-91
2021/07/25 00:05:51;;;;;;;;;;;22.30;95.80;22.40;98986.00;;;;342858;28;92497;-91
2021/07/25 00:06:03;;;;;;;;;;;22.30;95.70;22.30;98991.00;;;;347442;28;83327;-93
2021/07/25 00:06:16;;;;;;;;;;;22.30;95.60;22.50;98986.00;;;;342699;28;89630;-91
2021/07/25 00:06:28;;;;;;;;;;;22.30;95.60;22.40;98992.00;;;;346024;28;83438;-91
2021/07/25 00:06:40;;;;;;;;;;;22.30;95.60;22.40;98995.00;;;;345401;28;91428;-91
2021/07/25 00:06:51;;;;;;;;;;;22.30;95.50;22.30;98996.00;;;;346587;27;83604;-90
2021/07/25 00:07:04;;;;;;;;;;;22.30;95.40;22.20;98991.00;;;;345597;28;91138;-91
2021/07/25 00:07:16;;;;;;;;;;;22.30;95.30;22.20;98989.00;;;;345431;28;83478;-91
2021/07/25 00:07:28;;;;;;;;;;;22.30;95.30;22.20;98991.00;;;;345626;28;91376;-91
2021/07/25 00:07:39;;;;;;;;;;;22.30;95.30;22.20;98987.00;;;;347408;28;82559;-91
2021/07/25 00:07:51;;;;;;;;;;;22.30;95.30;22.30;98989.00;;;;344185;28;91921;-91
2021/07/25 00:08:03;;;;;;;;;;;22.20;95.30;22.30;98991.00;;;;343266;28;83468;-91
2021/07/25 00:08:15;;;;;;;;;;;22.20;95.50;22.40;98994.00;;;;344121;28;91620;-91
2021/07/25 00:08:27;;;;;;;;;;;22.30;95.70;22.50;98993.00;;;;344679;28;83466;-91
2021/07/25 00:08:39;;;;;;;;;;;22.30;95.40;22.60;98996.00;;;;344314;28;90399;-91
2021/07/25 00:08:50;;;;;;;;;;;22.30;95.40;22.60;98992.00;;;;343141;28;83496;-91
2021/07/25 00:09:02;;;;;;;;;;;22.30;95.40;22.60;98991.00;;;;337352;28;90008;-91
2021/07/25 00:09:14;;;;;;;;;;;22.30;95.40;22.60;98989.00;;;;343334;28;83436;-91
2021/07/25 00:09:26;;;;;;;;;;;22.40;95.30;22.60;98987.00;;;;345380;28;91542;-90
2021/07/25 00:09:38;;;;;;;;;;;22.40;95.20;22.60;98990.00;;;;343221;28;83491;-91
2021/07/25 00:09:49;;;;;;;;;;;22.40;95.20;22.60;98988.00;;;;343622;28;92251;-91
2021/07/25 00:10:02;;;;;;;;;;;22.40;95.20;22.50;98988.00;;;;345750;28;82588;-91
2021/07/25 00:10:14;;;;;;;;;;;22.40;95.20;22.50;98990.00;;;;345434;28;91209;-91
2021/07/25 00:10:26;;;;;;;;;;;22.40;95.10;22.40;98994.00;;;;343358;28;82547;-91
2021/07/25 00:10:43;;;;;;;;;;;22.40;95.20;22.40;98994.00;;;;342844;28;90811;-90
2021/07/25 00:10:56;;;;;;;;;;;22.40;95.20;22.40;98983.00;;;;343254;28;82528;-91
2021/07/25 00:11:08;;;;;;;;;;;22.40;95.20;22.50;98992.00;;;;344236;28;90286;-91
2021/07/25 00:11:19;;;;;;;;;;;22.40;95.30;22.50;98990.00;;;;344637;28;82612;-91
2021/07/25 00:11:31;;;;;;;;;;;22.40;95.30;22.40;98991.00;;;;345441;28;91283;-90
2021/07/25 00:11:43;;;;;;;;;;;22.30;95.20;22.40;98991.00;;;;346059;28;82475;-91
2021/07/25 00:11:55;;;;;;;;;;;22.30;95.20;22.30;98990.00;;;;343908;28;92604;-91
2021/07/25 00:12:07;;;;;;;;;;;22.40;95.30;22.30;98992.00;;;;345951;28;83364;-91
2021/07/25 00:12:19;;;;;;;;;;;22.30;95.20;22.30;98992.00;;;;344122;28;90355;-91
2021/07/25 00:12:31;;;;;;;;;;;22.30;95.30;22.30;98989.00;;;;343303;28;82491;-91
2021/07/25 00:12:43;;;;;;;;;;;22.30;95.30;22.30;98993.00;;;;342779;28;90562;-91
2021/07/25 00:12:55;;;;;;;;;;;22.30;95.30;22.20;98995.00;;;;347074;28;83539;-90
2021/07/25 00:13:06;;;;;;;;;;;22.30;95.30;22.20;98989.00;;;;342969;28;87754;-91
2021/07/25 00:13:19;;;;;;;;;;;22.30;95.30;22.30;98994.00;;;;345751;28;82540;-91
2021/07/25 00:13:36;;;;;;;;;;;22.30;95.30;22.30;98996.00;;;;344007;28;92562;-91
2021/07/25 00:13:52;;;;;;;;;;;22.30;95.30;22.20;98997.00;;;;343249;28;83574;-91
2021/07/25 00:14:04;;;;;;;;;;;22.30;95.40;22.20;99005.00;;;;344158;28;92143;-91
2021/07/25 00:14:16;;;;;;;;;;;22.30;95.50;22.20;98999.00;;;;344463;28;82392;-91
2021/07/25 00:14:28;;;;;;;;;;;22.30;95.50;22.20;98995.00;;;;342354;28;92002;-91
2021/07/25 00:14:40;;;;;;;;;;;22.30;95.50;22.20;98997.00;;;;346171;28;83416;-91
2021/07/25 00:14:52;;;;;;;;;;;22.30;95.50;22.20;98992.00;;;;342433;28;91660;-91
2021/07/25 00:15:04;;;;;;;;;;;22.30;95.50;22.30;98988.00;;;;346043;28;82450;-91
2021/07/25 00:15:16;;;;;;;;;;;22.30;95.50;22.30;98991.00;;;;344225;28;90506;-91
2021/07/25 00:15:28;;;;;;;;;;;22.30;95.50;22.30;98994.00;;;;344611;28;83466;-91
2021/07/25 00:15:40;;;;;;;;;;;22.30;95.60;22.20;98995.00;;;;344028;28;91369;-91
2021/07/25 00:15:52;;;;;;;;;;;22.20;95.50;22.20;98994.00;;;;341840;28;83553;-91
2021/07/25 00:16:20;;;;;;;;;;;22.30;95.60;22.30;98996.00;;;;345519;28;92887;-90
2021/07/25 00:16:33;;;;;;;;;;;22.30;95.60;22.30;98991.00;;;;344692;28;82469;-91
2021/07/25 00:16:45;;;;;;;;;;;22.30;95.60;22.30;98997.00;;;;344664;28;91172;-90
2021/07/25 00:16:57;;;;;;;;;;;22.30;95.60;22.20;98990.00;;;;347269;28;83555;-91
2021/07/25 00:17:09;;;;;;;;;;;22.20;95.60;22.20;98988.00;;;;344047;28;90761;-91
2021/07/25 00:17:21;;;;;;;;;;;22.20;95.60;22.20;98995.00;;;;345900;28;83647;-90
2021/07/25 00:17:33;;;;;;;;;;;22.30;95.60;22.20;98995.00;;;;342753;28;91532;-91
2021/07/25 00:17:45;;;;;;;;;;;22.20;95.60;22.10;98993.00;;;;344651;28;83338;-91
2021/07/25 00:17:57;;;;;;;;;;;22.20;95.60;22.10;98993.00;;;;342880;28;91575;-91
2021/07/25 00:18:09;;;;;;;;;;;22.20;95.60;22.10;98997.00;;;;348501;27;82554;-91
2021/07/25 00:18:21;;;;;;;;;;;22.20;95.70;22.20;98991.00;;;;343939;28;92033;-90
2021/07/25 00:18:32;;;;;;;;;;;22.20;95.70;22.20;98997.00;;;;343211;28;83465;-90
2021/07/25 00:18:44;;;;;;;;;;;22.20;95.70;22.20;98992.00;;;;345124;28;91231;-91
2021/07/25 00:18:57;;;;;;;;;;;22.20;95.90;22.20;98996.00;;;;344139;28;82542;-91
2021/07/25 00:19:12;;;;;;;;;;;22.20;95.60;22.10;98998.00;;;;345589;28;90103;-91
2021/07/25 00:19:23;;;;;;;;;;;22.20;95.60;22.20;98994.00;;;;344628;28;83397;-91
2021/07/25 00:19:35;;;;;;;;;;;22.20;95.60;22.10;99000.00;;;;342357;28;91855;-90
2021/07/25 00:19:48;;;;;;;;;;;22.20;95.60;22.10;99003.00;;;;345897;28;83423;-91
2021/07/25 00:20:01;;;;;;;;;;;22.20;95.60;22.10;99000.00;;;;344239;28;91130;-90
2021/07/25 00:20:13;;;;;;;;;;;22.20;95.60;22.10;99002.00;;;;343113;28;82730;-90
2021/07/25 00:20:25;;;;;;;;;;;22.20;95.60;22.20;98999.00;;;;342617;28;92570;-90
2021/07/25 00:20:37;;;;;;;;;;;22.20;95.70;22.30;98996.00;;;;344566;28;83538;-90
2021/07/25 00:20:49;;;;;;;;;;;22.20;95.70;22.40;98997.00;;;;344135;28;90966;-91
2021/07/25 00:21:01;;;;;;;;;;;22.20;95.70;22.50;99004.00;;;;345972;28;83427;-91
2021/07/25 00:21:13;;;;;;;;;;;22.20;95.70;22.50;99000.00;;;;340117;28;92319;-90
2021/07/25 00:21:25;;;;;;;;;;;22.20;95.60;22.50;99003.00;;;;344537;28;83509;-91
2021/07/25 00:21:36;;;;;;;;;;;22.20;95.60;22.40;99002.00;;;;342843;28;90512;-91
2021/07/25 00:21:48;;;;;;;;;;;22.20;95.60;22.50;99001.00;;;;345701;28;82543;-91
2021/07/25 00:22:00;;;;;;;;;;;22.20;95.60;22.50;99000.00;;;;343665;28;91507;-91
2021/07/25 00:22:13;;;;;;;;;;;22.20;95.60;22.60;98999.00;;;;341882;28;83475;-91
2021/07/25 00:22:25;;;;;;;;;;;22.20;95.60;22.60;99000.00;;;;345585;28;92687;-91
2021/07/25 00:22:37;;;;;;;;;;;22.20;95.60;22.60;98997.00;;;;344573;28;83482;-90
2021/07/25 00:22:49;;;;;;;;;;;22.30;95.60;22.60;99000.00;;;;344012;28;91782;-91
2021/07/25 00:23:01;;;;;;;;;;;22.30;95.60;22.60;98999.00;;;;345984;28;83460;-90
2021/07/25 00:23:17;;;;;;;;;;;22.30;95.60;22.60;98993.00;;;;345661;28;88080;-91
2021/07/25 00:23:29;;;;;;;;;;;22.30;95.60;22.40;98996.00;;;;344485;28;82659;-91
2021/07/25 00:23:45;;;;;;;;;;;22.30;95.50;22.30;98991.00;;;;345605;28;91232;-91
2021/07/25 00:23:59;;;;;;;;;;;22.30;95.50;22.30;98998.00;;;;347470;28;82493;-91
2021/07/25 00:24:11;;;;;;;;;;;22.30;95.60;22.30;99007.00;;;;342832;28;90217;-91
2021/07/25 00:24:29;;;;;;;;;;;22.30;95.60;22.30;98998.00;;;;347380;28;83432;-90
2021/07/25 00:24:49;;;;;;;;;;;22.30;95.50;22.20;98997.00;;;;344476;28;92560;-90
2021/07/25 00:25:18;;;;;;;;;;;22.30;95.50;22.20;99000.00;;;;345801;28;83521;-90
2021/07/25 00:25:32;;;;;;;;;;;22.30;95.60;22.30;99007.00;;;;345637;28;88969;-91
2021/07/25 00:25:46;;;;;;;;;;;22.30;95.50;22.30;98991.00;;;;343213;28;83434;-91
2021/07/25 00:25:57;;;;;;;;;;;22.30;95.50;22.40;98995.00;;;;342943;28;90041;-90
2021/07/25 00:26:12;;;;;;;;;;;22.30;95.50;22.40;98992.00;;;;343172;28;82556;-90
2021/07/25 00:26:33;;;;;;;;;;;22.30;95.50;22.40;98994.00;;;;345453;28;90631;-90
2021/07/25 00:26:48;;;;;;;;;;;22.30;95.50;22.30;99000.00;;;;342988;28;83619;-91
2021/07/25 00:27:00;;;;;;;;;;;22.30;95.50;22.30;98993.00;;;;345648;28;90606;-91
2021/07/25 00:27:12;;;;;;;;;;;22.30;95.50;22.30;98994.00;;;;344591;28;82452;-91
2021/07/25 00:27:28;;;;;;;;;;;22.20;95.40;22.30;98994.00;;;;344109;28;91527;-90
2021/07/25 00:27:41;;;;;;;;;;;22.30;95.40;22.30;98996.00;;;;345573;28;83474;-91
2021/07/25 00:27:54;;;;;;;;;;;22.30;95.40;22.20;98988.00;;;;342760;28;91176;-90
2021/07/25 00:28:06;;;;;;;;;;;22.20;95.30;22.20;98992.00;;;;343218;28;82469;-91
2021/07/25 00:28:19;;;;;;;;;;;22.20;95.30;22.30;98997.00;;;;344164;28;92282;-91
2021/07/25 00:28:34;;;;;;;;;;;22.20;95.40;22.30;98994.00;;;;341881;28;83417;-91
2021/07/25 00:28:46;;;;;;;;;;;22.20;95.40;22.30;98996.00;;;;345265;28;91919;-90
2021/07/25 00:28:57;;;;;;;;;;;22.20;95.40;22.30;98996.00;;;;345803;28;83390;-91
2021/07/25 00:29:09;;;;;;;;;;;22.20;95.40;22.20;98993.00;;;;345561;28;92181;-91
2021/07/25 00:29:21;;;;;;;;;;;22.30;95.40;22.20;98991.00;;;;346026;28;83352;-91
2021/07/25 00:29:33;;;;;;;;;;;22.30;95.40;22.20;98999.00;;;;345305;28;90711;-91
2021/07/25 00:29:45;;;;;;;;;;;22.20;95.40;22.20;98998.00;;;;347313;28;82570;-91
2021/07/25 00:29:57;;;;;;;;;;;22.20;95.40;22.10;98992.00;;;;347069;28;88964;-91
2021/07/25 00:30:12;;;;;;;;;;;22.20;95.40;22.20;98992.00;;;;344497;28;83406;-91
2021/07/25 00:30:24;;;;;;;;;;;22.20;95.30;22.20;98991.00;;;;344251;28;90494;-91
2021/07/25 00:30:36;;;;;;;;;;;22.20;95.40;22.10;98991.00;;;;341883;28;82541;-91
2021/07/25 00:30:48;;;;;;;;;;;22.20;95.40;22.10;98996.00;;;;344731;28;90427;-91
2021/07/25 00:31:03;;;;;;;;;;;22.20;95.40;22.10;99000.00;;;;345793;28;83538;-91
2021/07/25 00:31:15;;;;;;;;;;;22.20;95.50;22.10;98990.00;;;;344992;28;91438;-90
2021/07/25 00:31:29;;;;;;;;;;;22.20;95.40;22.10;98995.00;;;;346075;28;83265;-91
2021/07/25 00:31:41;;;;;;;;;;;22.20;95.50;22.20;99000.00;;;;344159;28;91447;-91
2021/07/25 00:31:53;;;;;;;;;;;22.20;95.50;22.30;98994.00;;;;344314;28;83424;-90
2021/07/25 00:32:05;;;;;;;;;;;22.20;95.40;22.30;98987.00;;;;344221;28;90878;-91
2021/07/25 00:32:17;;;;;;;;;;;22.20;95.40;22.30;98989.00;;;;346059;28;82552;-91
2021/07/25 00:32:29;;;;;;;;;;;22.20;95.40;22.30;98989.00;;;;345558;28;90834;-91
2021/07/25 00:32:41;;;;;;;;;;;22.20;95.30;22.20;98995.00;;;;346110;28;83368;-91
2021/07/25 00:32:54;;;;;;;;;;;22.20;95.30;22.20;98995.00;;;;344001;28;91397;-91
2021/07/25 00:33:06;;;;;;;;;;;22.20;95.30;22.20;98995.00;;;;344819;28;83395;-90
2021/07/25 00:33:18;;;;;;;;;;;22.20;95.30;22.20;98995.00;;;;344202;28;90287;-91
2021/07/25 00:33:31;;;;;;;;;;;22.20;95.30;22.20;98992.00;;;;343381;28;82520;-91
2021/07/25 00:33:43;;;;;;;;;;;22.20;95.30;22.20;98998.00;;;;345309;28;91360;-90
2021/07/25 00:33:55;;;;;;;;;;;22.20;95.30;22.30;99002.00;;;;346916;28;83440;-91
2021/07/25 00:34:07;;;;;;;;;;;22.20;95.40;22.40;98994.00;;;;344443;28;90544;-91
2021/07/25 00:34:19;;;;;;;;;;;22.20;95.40;22.30;98995.00;;;;345978;28;83546;-91
2021/07/25 00:34:32;;;;;;;;;;;22.20;95.30;22.30;98998.00;;;;343075;28;91453;-91
2021/07/25 00:34:44;;;;;;;;;;;22.20;95.30;22.30;98992.00;;;;342111;28;83416;-90
2021/07/25 00:34:56;;;;;;;;;;;22.20;95.30;22.30;98993.00;;;;342613;28;92065;-91
2021/07/25 00:35:09;;;;;;;;;;;22.20;95.30;22.30;98994.00;;;;343499;28;83385;-91
2021/07/25 00:35:21;;;;;;;;;;;22.20;95.30;22.30;98998.00;;;;343190;28;90616;-91
2021/07/25 00:35:33;;;;;;;;;;;22.20;95.30;22.20;98995.00;;;;342127;28;83454;-91
2021/07/25 00:35:45;;;;;;;;;;;22.20;95.30;22.20;98991.00;;;;342847;28;92752;-91
2021/07/25 00:35:58;;;;;;;;;;;22.20;95.30;22.20;98996.00;;;;346333;28;82621;-91
2021/07/25 00:36:10;;;;;;;;;;;22.20;95.30;22.20;98995.00;;;;344416;28;91545;-90
2021/07/25 00:36:22;;;;;;;;;;;22.20;95.30;22.20;98999.00;;;;343392;28;82682;-91
2021/07/25 00:36:34;;;;;;;;;;;22.20;95.30;22.20;98999.00;;;;343034;28;91899;-90
2021/07/25 00:36:46;;;;;;;;;;;22.20;95.30;22.20;98995.00;;;;344191;28;83571;-91
2021/07/25 00:36:58;;;;;;;;;;;22.20;95.20;22.20;98997.00;;;;345057;28;91357;-91
2021/07/25 00:37:09;;;;;;;;;;;22.20;95.30;22.30;98997.00;;;;346021;28;82538;-91
2021/07/25 00:37:21;;;;;;;;;;;22.20;95.30;22.30;98999.00;;;;344353;28;92000;-91
2021/07/25 00:37:33;;;;;;;;;;;22.20;95.30;22.30;98988.00;;;;344832;28;83147;-91
2021/07/25 00:37:47;;;;;;;;;;;22.20;95.30;22.40;98987.00;;;;342965;28;91233;-90
2021/07/25 00:37:59;;;;;;;;;;;22.20;95.30;22.30;98991.00;;;;342127;28;83458;-91
2021/07/25 00:38:11;;;;;;;;;;;22.20;95.30;22.30;98995.00;;;;344333;28;91516;-91
2021/07/25 00:38:23;;;;;;;;;;;22.20;95.30;22.20;98995.00;;;;346256;28;83517;-91
2021/07/25 00:38:35;;;;;;;;;;;22.20;95.30;22.10;99000.00;;;;342944;28;90654;-91
2021/07/25 00:38:47;;;;;;;;;;;22.20;95.30;22.20;98996.00;;;;344666;28;83402;-91
2021/07/25 00:38:58;;;;;;;;;;;22.20;95.20;22.20;99000.00;;;;344212;28;91755;-91
2021/07/25 00:39:10;;;;;;;;;;;22.20;95.20;22.30;98993.00;;;;344831;28;83453;-91
2021/07/25 00:39:22;;;;;;;;;;;22.20;95.30;22.30;98995.00;;;;342720;28;90447;-90
2021/07/25 00:39:34;;;;;;;;;;;22.20;95.30;22.20;98992.00;;;;343472;28;83421;-91
2021/07/25 00:39:46;;;;;;;;;;;22.20;95.30;22.20;98997.00;;;;343239;28;92819;-91
2021/07/25 00:39:58;;;;;;;;;;;22.20;95.30;22.20;98996.00;;;;343954;28;83614;-91
2021/07/25 00:40:21;;;;;;;;;;;22.20;95.30;22.30;98991.00;;;;344486;28;91795;-91
2021/07/25 00:40:43;;;;;;;;;;;22.20;95.30;22.40;98989.00;;;;344921;28;82461;-92
2021/07/25 00:40:59;;;;;;;;;;;22.20;95.40;22.30;98989.00;;;;342820;28;90487;-91
2021/07/25 00:41:13;;;;;;;;;;;22.20;95.40;22.30;98991.00;;;;346170;28;82482;-91
2021/07/25 00:41:25;;;;;;;;;;;22.20;95.40;22.20;98984.00;;;;345364;28;91701;-91
2021/07/25 00:41:37;;;;;;;;;;;22.30;95.50;22.20;98985.00;;;;339261;28;83461;-91
2021/07/25 00:41:49;;;;;;;;;;;22.20;95.50;22.10;98991.00;;;;338937;28;91811;-91
2021/07/25 00:42:02;;;;;;;;;;;22.20;95.50;22.20;98985.00;;;;344678;28;83522;-91
2021/07/25 00:42:14;;;;;;;;;;;22.20;95.60;22.20;98985.00;;;;342900;28;91619;-91
2021/07/25 00:42:36;;;;;;;;;;;22.20;95.50;22.30;98987.00;;;;343516;28;82491;-91
2021/07/25 00:42:48;;;;;;;;;;;22.20;95.50;22.30;98975.00;;;;342287;28;91624;-91
2021/07/25 00:42:59;;;;;;;;;;;22.20;95.60;22.30;98981.00;;;;345097;28;83576;-91
2021/07/25 00:43:24;;;;;;;;;;;22.20;95.60;22.20;98981.00;;;;345643;28;90480;-91
2021/07/25 00:43:36;;;;;;;;;;;22.20;95.60;22.20;98981.00;;;;344412;28;83460;-91
2021/07/25 00:43:48;;;;;;;;;;;22.20;95.70;22.20;98984.00;;;;344929;28;92154;-91
2021/07/25 00:44:00;;;;;;;;;;;22.30;95.80;22.20;98984.00;;;;344538;28;82555;-91
2021/07/25 00:44:12;;;;;;;;;;;22.20;95.70;22.20;98980.00;;;;345498;28;90478;-91
2021/07/25 00:44:23;;;;;;;;;;;22.20;95.70;22.10;98981.00;;;;347379;28;83417;-91
2021/07/25 00:44:35;;;;;;;;;;;22.20;95.70;22.10;98983.00;;;;344272;28;90777;-90
2021/07/25 00:44:47;;;;;;;;;;;22.20;95.70;22.10;98974.00;;;;343154;28;83544;-90
2021/07/25 00:44:59;;;;;;;;;;;22.20;95.80;22.20;98980.00;;;;344247;28;90414;-91
2021/07/25 00:45:10;;;;;;;;;;;22.20;95.80;22.10;98979.00;;;;346012;28;83392;-90
2021/07/25 00:45:22;;;;;;;;;;;22.20;95.70;22.10;98976.00;;;;345516;28;91918;-91
2021/07/25 00:45:34;;;;;;;;;;;22.20;95.70;22.20;98979.00;;;;344413;28;83525;-90
2021/07/25 00:45:46;;;;;;;;;;;22.20;95.70;22.20;98978.00;;;;343698;28;91418;-90
2021/07/25 00:45:58;;;;;;;;;;;22.20;95.70;22.20;98980.00;;;;345121;28;83420;-91
2021/07/25 00:46:13;;;;;;;;;;;22.20;95.70;22.20;98982.00;;;;344099;28;92175;-90
2021/07/25 00:46:25;;;;;;;;;;;22.20;95.70;22.20;98984.00;;;;345972;28;82477;-91
2021/07/25 00:46:37;;;;;;;;;;;22.20;95.70;22.20;98985.00;;;;345544;28;91545;-91
2021/07/25 00:46:56;;;;;;;;;;;22.20;95.70;22.20;98979.00;;;;344501;28;83636;-91
2021/07/25 00:47:08;;;;;;;;;;;22.20;95.70;22.20;98973.00;;;;344377;28;87650;-91
2021/07/25 00:47:20;;;;;;;;;;;22.20;95.70;22.10;98977.00;;;;343226;28;82524;-91
2021/07/25 00:47:33;;;;;;;;;;;22.20;95.70;22.10;98974.00;;;;345537;28;92184;-91
2021/07/25 00:47:44;;;;;;;;;;;22.20;95.80;22.20;98973.00;;;;346000;28;83857;-91
2021/07/25 00:47:57;;;;;;;;;;;22.20;95.80;22.10;98972.00;;;;345597;28;91871;-91
2021/07/25 00:48:09;;;;;;;;;;;22.20;95.70;22.20;98976.00;;;;345985;28;82580;-91
2021/07/25 00:48:22;;;;;;;;;;;22.20;95.70;22.20;98974.00;;;;344188;28;91931;-91
2021/07/25 00:48:34;;;;;;;;;;;22.20;95.70;22.30;98972.00;;;;345899;28;83410;-91
2021/07/25 00:48:46;;;;;;;;;;;22.20;95.70;22.20;98975.00;;;;343351;28;92277;-91
2021/07/25 00:49:00;;;;;;;;;;;22.20;95.70;22.20;98974.00;;;;347093;28;83694;-91
2021/07/25 00:49:13;;;;;;;;;;;22.20;95.70;22.10;98975.00;;;;344467;28;91955;-91
2021/07/25 00:49:25;;;;;;;;;;;22.20;95.70;22.10;98982.00;;;;345617;28;83994;-91
2021/07/25 00:49:39;;;;;;;;;;;22.20;95.70;22.30;98979.00;;;;345735;28;86175;-91
2021/07/25 00:49:51;;;;;;;;;;;22.20;95.70;22.40;98975.00;;;;341816;28;84038;-91
2021/07/25 00:50:04;;;;;;;;;;;22.20;95.70;22.50;98978.00;;;;344205;28;90994;-90
2021/07/25 00:50:15;;;;;;;;;;;22.20;95.70;22.50;98980.00;;;;342944;28;82580;-91
2021/07/25 00:50:27;;;;;;;;;;;22.20;95.60;22.30;98973.00;;;;341518;28;89817;-91
2021/07/25 00:50:40;;;;;;;;;;;22.20;95.60;22.40;98979.00;;;;341919;28;83423;-90
2021/07/25 00:50:52;;;;;;;;;;;22.20;95.60;22.30;98976.00;;;;342701;28;92300;-91
2021/07/25 00:51:05;;;;;;;;;;;22.20;95.60;22.40;98974.00;;;;343163;28;83336;-91
2021/07/25 00:51:16;;;;;;;;;;;22.20;95.50;22.30;98971.00;;;;344203;28;90637;-91
2021/07/25 00:51:30;;;;;;;;;;;22.20;95.50;22.40;98976.00;;;;341801;28;83424;-91
2021/07/25 00:51:42;;;;;;;;;;;22.20;95.50;22.50;98977.00;;;;341146;28;90666;-91
2021/07/25 00:51:54;;;;;;;;;;;22.20;95.50;22.60;98971.00;;;;343216;28;83515;-91
2021/07/25 00:52:07;;;;;;;;;;;22.20;95.50;22.50;98980.00;;;;345444;28;91644;-91
2021/07/25 00:52:19;;;;;;;;;;;22.20;95.40;22.40;98981.00;;;;344114;28;82642;-91
2021/07/25 00:52:31;;;;;;;;;;;22.30;95.50;22.40;98972.00;;;;342482;28;91668;-91
2021/07/25 00:52:43;;;;;;;;;;;22.30;95.50;22.40;98969.00;;;;341788;28;82506;-91
2021/07/25 00:52:55;;;;;;;;;;;22.30;95.50;22.40;98981.00;;;;345356;28;93004;-90
2021/07/25 00:53:07;;;;;;;;;;;22.30;95.40;22.30;98983.00;;;;344544;28;83454;-90
2021/07/25 00:53:19;;;;;;;;;;;22.30;95.40;22.40;98982.00;;;;347058;28;91017;-91
2021/07/25 00:53:34;;;;;;;;;;;22.30;95.50;22.30;98979.00;;;;345681;28;82606;-91
2021/07/25 00:53:46;;;;;;;;;;;22.30;95.40;22.30;98983.00;;;;342900;28;91928;-89
2021/07/25 00:53:58;;;;;;;;;;;22.30;95.40;22.20;98980.00;;;;345989;28;83458;-91
2021/07/25 00:54:10;;;;;;;;;;;22.20;95.40;22.20;98981.00;;;;344015;28;91380;-90
2021/07/25 00:54:22;;;;;;;;;;;22.20;95.50;22.30;98972.00;;;;340625;28;82504;-90
2021/07/25 00:54:36;;;;;;;;;;;22.20;95.50;22.20;98983.00;;;;345600;28;91840;-90
2021/07/25 00:54:48;;;;;;;;;;;22.30;95.50;22.20;98981.00;;;;343932;28;85313;-91
2021/07/25 00:55:00;;;;;;;;;;;22.20;95.40;22.30;98981.00;;;;342575;28;91625;-91
2021/07/25 00:55:12;;;;;;;;;;;22.30;95.50;22.20;98982.00;;;;346839;28;82581;-91
2021/07/25 00:55:24;;;;;;;;;;;22.20;95.50;22.30;98980.00;;;;341445;28;91725;-91
2021/07/25 00:55:36;;;;;;;;;;;22.30;95.50;22.40;98981.00;;;;343300;28;83407;-91
2021/07/25 00:55:48;;;;;;;;;;;22.20;95.50;22.30;98977.00;;;;343593;28;91259;-91
2021/07/25 00:56:00;;;;;;;;;;;22.20;95.50;22.30;98981.00;;;;343134;28;83444;-92
2021/07/25 00:56:12;;;;;;;;;;;22.30;95.50;22.40;98978.00;;;;339818;28;91850;-91
2021/07/25 00:56:24;;;;;;;;;;;22.30;95.50;22.40;98983.00;;;;341904;28;83417;-91
2021/07/25 00:56:37;;;;;;;;;;;22.30;95.50;22.30;98982.00;;;;345605;28;90814;-91
2021/07/25 00:56:49;;;;;;;;;;;22.30;95.50;22.40;98982.00;;;;345879;28;83442;-91
2021/07/25 00:57:01;;;;;;;;;;;22.30;95.50;22.40;98979.00;;;;342736;28;91276;-90
2021/07/25 00:57:13;;;;;;;;;;;22.30;95.50;22.50;98980.00;;;;344546;28;83479;-91
2021/07/25 00:57:25;;;;;;;;;;;22.30;95.40;22.40;98979.00;;;;344132;28;90376;-91
2021/07/25 00:57:37;;;;;;;;;;;22.30;95.40;22.30;98979.00;;;;345895;28;83919;-90
2021/07/25 00:57:48;;;;;;;;;;;22.30;95.50;22.20;98983.00;;;;345906;28;91551;-91
2021/07/25 00:58:01;;;;;;;;;;;22.30;95.50;22.20;98976.00;;;;343183;28;82543;-91
2021/07/25 00:58:13;;;;;;;;;;;22.30;95.50;22.20;98981.00;;;;345008;28;92148;-91
2021/07/25 00:58:25;;;;;;;;;;;22.30;95.70;22.20;98980.00;;;;345696;28;82505;-91
2021/07/25 00:58:41;;;;;;;;;;;22.30;95.50;22.30;98977.00;;;;344192;28;90833;-91
2021/07/25 00:58:53;;;;;;;;;;;22.20;95.50;22.40;98987.00;;;;345954;28;82486;-91
2021/07/25 00:59:05;;;;;;;;;;;22.20;95.50;22.40;98982.00;;;;342752;28;91601;-91
2021/07/25 00:59:17;;;;;;;;;;;22.30;95.50;22.40;98974.00;;;;346029;28;82511;-91
2021/07/25 00:59:29;;;;;;;;;;;22.20;95.50;22.40;98988.00;;;;337282;28;90769;-91
2021/07/25 00:59:41;;;;;;;;;;;22.30;95.50;22.40;98974.00;;;;337820;28;83465;-91
2021/07/25 00:59:52;;;;;;;;;;;22.30;95.50;22.40;98975.00;;;;345548;28;91269;-91
2021/07/25 01:00:07;;;;;;;;;;;22.30;95.50;22.30;98976.00;;;;341911;28;82458;-91
2021/07/25 01:00:19;;;;;;;;;;;22.20;95.50;22.30;98971.00;;;;342767;28;91115;-91
2021/07/25 01:00:31;;;;;;;;;;;22.30;95.60;22.30;98970.00;;;;344588;28;82610;-90
2021/07/25 01:00:46;;;;;;;;;;;22.20;95.50;22.30;98978.00;;;;344539;28;90611;-90
2021/07/25 01:00:58;;;;;;;;;;;22.20;95.50;22.30;98976.00;;;;345087;28;83479;-90
2021/07/25 01:01:11;;;;;;;;;;;22.20;95.60;22.20;98971.00;;;;343750;28;91495;-89
2021/07/25 01:01:23;;;;;;;;;;;22.20;95.60;22.20;98976.00;;;;344017;28;83532;-90
2021/07/25 01:01:35;;;;;;;;;;;22.20;95.60;22.20;98974.00;;;;342706;28;92221;-90
2021/07/25 01:01:50;;;;;;;;;;;22.20;95.60;22.20;98972.00;;;;343260;28;83562;-91
2021/07/25 01:02:02;;;;;;;;;;;22.20;95.60;22.30;98984.00;;;;346825;28;91334;-91
2021/07/25 01:02:14;;;;;;;;;;;22.20;95.60;22.30;98976.00;;;;344465;28;82306;-91
2021/07/25 01:02:32;;;;;;;;;;;22.20;95.60;22.40;98981.00;;;;344258;28;91639;-91
2021/07/25 01:03:00;;;;;;;;;;;22.20;95.60;22.40;98974.00;;;;344593;28;82258;-92
2021/07/25 01:03:23;;;;;;;;;;;22.20;95.60;22.20;98978.00;;;;344236;28;89358;-91
2021/07/25 01:04:10;;;;;;;;;;;22.20;95.60;22.10;98981.00;;;;344672;28;83539;-91